Time;durP1;ratioP1;P1;durP2;ratioP2;P2;SDS_P1;SDS_P2;PMS_P1;PMS_P2;Temp;Humidity;BMP_temperature;BMP_pressure;BME280_temperature;BME280_humidity;BME280_pressure;Samples;Min_cycle;Max_cycle;Signal;HPM_P1;HPM_P2
2021/01/12 00:00:26;;;;;;;19.20;9.73;;;7.20;99.90;;;;;;5014240;28;20537;-91
2021/01/12 00:02:52;;;;;;;14.97;8.33;;;7.20;99.90;;;;;;5029395;28;20258;-91
2021/01/12 00:05:20;;;;;;;12.53;8.73;;;7.20;99.90;;;;;;5030154;28;20172;-92
2021/01/12 00:07:50;;;;;;;21.20;8.47;;;7.30;99.90;;;;;;5034992;28;20195;-91
2021/01/12 00:10:18;;;;;;;23.07;9.80;;;7.30;99.90;;;;;;4997129;28;20177;-92
2021/01/12 00:12:44;;;;;;;14.63;8.33;;;7.30;99.90;;;;;;5013371;28;20263;-91
2021/01/12 00:15:10;;;;;;;15.03;8.23;;;7.40;99.90;;;;;;5043622;28;20285;-92
2021/01/12 00:17:36;;;;;;;13.50;7.53;;;7.40;99.90;;;;;;5013351;28;20180;-93
2021/01/12 00:20:09;;;;;;;13.07;7.67;;;7.40;99.90;;;;;;5029933;28;20181;-91
2021/01/12 00:22:37;;;;;;;14.43;7.97;;;7.40;99.90;;;;;;5014296;28;20200;-91
2021/01/12 00:25:06;;;;;;;19.77;7.60;;;7.40;99.90;;;;;;5020826;28;20204;-93
2021/01/12 00:27:31;;;;;;;11.63;7.50;;;7.40;99.90;;;;;;5013460;28;20238;-92
2021/01/12 00:29:57;;;;;;;11.73;7.47;;;7.40;99.90;;;;;;5029955;28;20172;-91
2021/01/12 00:32:30;;;;;;;9.87;7.27;;;7.40;99.90;;;;;;5043125;28;20196;-92
2021/01/12 00:34:56;;;;;;;10.13;7.13;;;7.40;99.90;;;;;;5036504;28;20198;-92
2021/01/12 00:37:26;;;;;;;11.40;7.23;;;7.40;99.90;;;;;;5002644;28;20279;-92
2021/01/12 00:39:53;;;;;;;12.47;6.60;;;7.40;99.90;;;;;;5036262;28;20198;-92
2021/01/12 00:42:19;;;;;;;11.80;7.10;;;7.40;99.90;;;;;;5051257;28;20207;-91
2021/01/12 00:44:48;;;;;;;12.13;7.47;;;7.40;99.90;;;;;;5031527;28;20202;-92
2021/01/12 00:47:17;;;;;;;12.47;6.30;;;7.40;99.90;;;;;;5012972;28;20273;-92
2021/01/12 00:49:42;;;;;;;12.87;6.27;;;7.50;99.90;;;;;;5017818;28;20169;-92
2021/01/12 00:52:10;;;;;;;9.33;6.10;;;7.50;99.90;;;;;;5019363;28;20187;-92
2021/01/12 00:54:35;;;;;;;6.97;6.33;;;7.50;99.90;;;;;;5030666;28;20267;-92
2021/01/12 00:57:02;;;;;;;6.80;6.10;;;7.50;99.90;;;;;;5023613;28;20279;-93
2021/01/12 00:59:28;;;;;;;10.20;7.17;;;7.50;99.90;;;;;;5022134;28;20259;-92
2021/01/12 01:01:59;;;;;;;8.27;6.80;;;7.40;99.90;;;;;;5030424;28;20283;-92
2021/01/12 01:04:25;;;;;;;14.63;7.37;;;7.40;99.90;;;;;;5037547;28;20156;-92
2021/01/12 01:06:52;;;;;;;7.63;7.03;;;7.40;99.90;;;;;;5020054;28;20663;-92
2021/01/12 01:09:18;;;;;;;10.07;7.07;;;7.40;99.90;;;;;;5036644;28;20180;-93
2021/01/12 01:11:45;;;;;;;9.27;7.80;;;7.50;99.90;;;;;;5036727;28;20164;-92
2021/01/12 01:14:11;;;;;;;9.03;8.00;;;7.50;99.90;;;;;;5053709;28;20180;-92
2021/01/12 01:16:38;;;;;;;10.70;8.33;;;7.50;99.90;;;;;;5050463;28;20191;-92
2021/01/12 01:19:07;;;;;;;8.37;7.77;;;7.50;99.90;;;;;;5005772;28;20196;-92
2021/01/12 01:21:35;;;;;;;11.17;8.10;;;7.50;99.90;;;;;;5015850;28;20204;-93
2021/01/12 01:24:02;;;;;;;9.90;7.70;;;7.50;99.90;;;;;;5032862;28;20181;-92
2021/01/12 01:26:28;;;;;;;8.60;7.80;;;7.50;99.90;;;;;;5016267;28;20590;-92
2021/01/12 01:28:54;;;;;;;9.27;8.17;;;7.50;99.90;;;;;;5017120;28;20177;-92
2021/01/12 01:31:20;;;;;;;9.57;8.73;;;7.50;99.90;;;;;;5047430;28;20660;-92
2021/01/12 01:33:48;;;;;;;11.33;8.57;;;7.50;99.90;;;;;;5048976;28;20169;-92
2021/01/12 01:36:14;;;;;;;12.43;9.93;;;7.50;99.90;;;;;;5036302;28;20294;-92
2021/01/12 01:38:41;;;;;;;9.50;8.57;;;7.50;99.90;;;;;;5052717;28;20172;-93
2021/01/12 01:41:08;;;;;;;15.47;8.70;;;7.60;99.90;;;;;;5052001;28;20176;-93
2021/01/12 01:43:36;;;;;;;12.40;8.33;;;7.60;99.90;;;;;;5035330;28;20295;-93
2021/01/12 01:46:03;;;;;;;8.43;7.43;;;7.60;99.90;;;;;;5035616;28;20207;-93
2021/01/12 01:48:29;;;;;;;14.13;8.30;;;7.70;99.90;;;;;;5036053;28;20176;-93
2021/01/12 01:50:55;;;;;;;8.87;8.03;;;7.70;99.90;;;;;;5035891;28;20172;-92
2021/01/12 01:53:21;;;;;;;8.80;7.90;;;7.80;99.90;;;;;;5019075;28;20178;-92
2021/01/12 01:55:54;;;;;;;11.47;7.70;;;7.70;99.90;;;;;;5052046;28;20176;-93
2021/01/12 01:58:20;;;;;;;8.20;7.33;;;7.80;99.90;;;;;;5036414;28;20616;-92
2021/01/12 02:00:49;;;;;;;8.77;7.97;;;7.80;99.90;;;;;;5035098;28;20176;-92
2021/01/12 02:03:21;;;;;;;9.83;7.10;;;7.80;99.90;;;;;;5019025;28;20207;-93
2021/01/12 02:05:51;;;;;;;12.70;6.90;;;7.80;99.90;;;;;;5035301;28;20175;-93
2021/01/12 02:08:32;;;;;;;7.00;6.30;;;7.80;99.90;;;;;;5035224;28;20173;-93
2021/01/12 02:11:01;;;;;;;10.47;7.40;;;7.80;99.90;;;;;;5035580;28;20167;-92
2021/01/12 02:13:31;;;;;;;6.93;6.33;;;7.80;99.90;;;;;;5035286;28;20211;-93
2021/01/12 02:16:00;;;;;;;7.07;6.43;;;7.80;99.90;;;;;;5035881;28;20168;-93
2021/01/12 02:18:33;;;;;;;6.00;5.50;;;7.80;99.90;;;;;;5037962;28;20218;-93
2021/01/12 02:21:02;;;;;;;6.10;5.37;;;7.90;99.90;;;;;;5037607;28;20172;-92
2021/01/12 02:24:05;;;;;;;6.87;5.70;;;7.90;99.90;;;;;;5036928;28;20196;-93
2021/01/12 02:26:31;;;;;;;5.50;4.70;;;7.90;99.90;;;;;;4986608;28;20165;-91
2021/01/12 02:28:56;;;;;;;5.77;5.30;;;7.90;99.90;;;;;;5046193;28;20187;-92
2021/01/12 02:31:22;;;;;;;5.63;5.10;;;8.00;99.90;;;;;;5057764;28;20210;-92
2021/01/12 02:33:50;;;;;;;6.17;4.77;;;8.10;99.90;;;;;;5075019;28;20175;-91
2021/01/12 02:36:20;;;;;;;6.97;5.17;;;8.10;99.90;;;;;;5058516;28;20153;-90
2021/01/12 02:38:46;;;;;;;9.00;4.70;;;8.10;99.90;;;;;;5027459;28;20626;-92
2021/01/12 02:41:30;;;;;;;4.57;4.17;;;8.10;99.90;;;;;;5036912;28;20176;-92
2021/01/12 02:43:56;;;;;;;5.63;4.20;;;8.10;99.90;;;;;;5036927;28;20172;-92
2021/01/12 02:46:29;;;;;;;7.17;4.40;;;8.20;99.90;;;;;;5052485;28;20183;-91
2021/01/12 02:48:55;;;;;;;4.93;3.97;;;8.10;99.90;;;;;;5036409;28;20163;-91
2021/01/12 02:51:21;;;;;;;6.97;4.50;;;8.20;99.90;;;;;;5035633;28;20176;-92
2021/01/12 02:53:47;;;;;;;5.63;3.73;;;8.20;99.90;;;;;;5051407;28;20172;-93
2021/01/12 02:56:12;;;;;;;6.03;3.80;;;8.20;99.90;;;;;;5050432;28;20229;-92
2021/01/12 02:58:38;;;;;;;5.13;3.53;;;8.20;99.90;;;;;;5018409;28;20172;-91
2021/01/12 03:01:05;;;;;;;3.70;3.40;;;8.20;99.90;;;;;;5042587;28;20176;-91
2021/01/12 03:03:30;;;;;;;4.30;3.90;;;8.20;99.90;;;;;;4998546;28;20204;-93
2021/01/12 03:05:57;;;;;;;5.10;3.70;;;8.30;99.90;;;;;;5014783;28;20185;-92
2021/01/12 03:08:22;;;;;;;6.90;3.50;;;8.30;99.90;;;;;;5016858;28;20175;-92
2021/01/12 03:10:48;;;;;;;7.30;2.87;;;8.40;99.90;;;;;;5031170;28;20212;-92
2021/01/12 03:13:14;;;;;;;4.00;2.80;;;8.40;99.90;;;;;;5014939;28;20181;-92
2021/01/12 03:15:40;;;;;;;2.63;2.43;;;8.40;99.90;;;;;;5014664;28;20173;-92
2021/01/12 03:18:07;;;;;;;2.30;2.07;;;8.40;99.90;;;;;;5015882;28;20196;-92
2021/01/12 03:20:33;;;;;;;2.40;1.90;;;8.40;99.90;;;;;;5019591;28;20176;-92
2021/01/12 03:22:59;;;;;;;6.00;1.93;;;8.40;99.90;;;;;;5019718;28;20192;-91
2021/01/12 03:25:26;;;;;;;3.40;2.30;;;8.40;99.90;;;;;;5014685;28;20255;-92
2021/01/12 03:27:53;;;;;;;6.70;2.37;;;8.40;99.90;;;;;;5014245;28;20181;-93
2021/01/12 03:30:19;;;;;;;2.67;2.03;;;8.40;99.90;;;;;;5030768;28;20172;-92
2021/01/12 03:32:45;;;;;;;3.30;2.10;;;8.40;99.90;;;;;;5014487;28;20271;-92
2021/01/12 03:35:11;;;;;;;2.43;1.57;;;8.40;99.90;;;;;;5015391;28;20665;-93
2021/01/12 03:37:38;;;;;;;1.90;1.77;;;8.40;99.90;;;;;;5014277;28;20539;-92
2021/01/12 03:40:05;;;;;;;2.03;1.60;;;8.40;99.90;;;;;;5018822;28;20207;-92
2021/01/12 03:42:31;;;;;;;1.67;1.43;;;8.40;99.90;;;;;;5034797;28;20680;-93
2021/01/12 03:44:59;;;;;;;3.43;1.73;;;8.50;99.90;;;;;;5031208;28;20252;-92
2021/01/12 03:47:25;;;;;;;1.70;1.60;;;8.50;99.90;;;;;;5023301;28;20185;-92
2021/01/12 03:49:51;;;;;;;2.20;1.63;;;8.50;99.90;;;;;;5030390;28;20248;-92
2021/01/12 03:52:26;;;;;;;1.63;1.40;;;8.60;99.90;;;;;;5033820;28;20199;-93
2021/01/12 03:54:53;;;;;;;1.40;1.30;;;8.60;99.90;;;;;;5019457;28;20172;-92
2021/01/12 03:57:21;;;;;;;2.93;1.23;;;8.60;99.90;;;;;;5050840;28;20172;-92
2021/01/12 03:59:46;;;;;;;1.37;1.20;;;8.50;99.90;;;;;;5035331;28;20176;-92
2021/01/12 04:02:12;;;;;;;2.73;1.23;;;8.50;99.90;;;;;;5051510;28;20277;-94
2021/01/12 04:04:38;;;;;;;1.53;1.23;;;8.50;99.90;;;;;;5038907;28;20179;-93
2021/01/12 04:07:04;;;;;;;3.43;1.20;;;8.60;99.90;;;;;;5034343;28;20203;-92
2021/01/12 04:09:30;;;;;;;1.87;1.17;;;8.50;99.90;;;;;;5054379;28;20176;-92
2021/01/12 04:11:56;;;;;;;2.17;1.30;;;8.50;99.90;;;;;;5054511;28;20681;-92
2021/01/12 04:14:21;;;;;;;1.57;1.10;;;8.60;99.90;;;;;;5053793;28;20195;-92
2021/01/12 04:16:49;;;;;;;1.70;1.03;;;8.60;99.90;;;;;;5021276;28;20270;-92
2021/01/12 04:19:15;;;;;;;2.60;1.30;;;8.50;99.90;;;;;;5037623;28;20198;-92
2021/01/12 04:21:43;;;;;;;1.37;1.20;;;8.60;99.90;;;;;;5054739;28;20196;-91
2021/01/12 04:24:10;;;;;;;1.43;0.90;;;8.50;99.90;;;;;;5005077;28;20186;-91
2021/01/12 04:26:35;;;;;;;2.43;1.40;;;8.60;99.90;;;;;;5053899;28;20539;-92
2021/01/12 04:29:01;;;;;;;1.47;1.20;;;8.60;99.90;;;;;;5020920;28;20176;-92
2021/01/12 04:31:27;;;;;;;2.07;1.20;;;8.60;99.90;;;;;;5020491;28;20276;-93
2021/01/12 04:33:52;;;;;;;2.17;1.27;;;8.50;99.90;;;;;;5004029;28;20530;-91
2021/01/12 04:36:19;;;;;;;4.00;1.27;;;8.50;99.90;;;;;;5037491;28;20194;-91
2021/01/12 04:38:44;;;;;;;2.57;1.63;;;8.50;99.90;;;;;;5037252;28;20176;-93
2021/01/12 04:41:10;;;;;;;1.73;1.63;;;8.50;99.90;;;;;;5037640;28;20178;-92
2021/01/12 04:43:36;;;;;;;4.07;1.50;;;8.50;99.90;;;;;;5036739;28;20207;-93
2021/01/12 04:46:05;;;;;;;3.40;1.40;;;8.60;99.90;;;;;;5037023;28;20180;-92
2021/01/12 04:48:30;;;;;;;1.37;1.27;;;8.60;99.90;;;;;;5004753;28;20173;-92
2021/01/12 04:51:06;;;;;;;1.37;1.30;;;8.70;99.90;;;;;;5021018;28;20183;-92
2021/01/12 04:53:48;;;;;;;1.47;1.37;;;8.70;99.90;;;;;;5037193;28;20172;-92
2021/01/12 04:56:18;;;;;;;1.53;1.40;;;8.70;99.90;;;;;;5053239;28;20180;-91
2021/01/12 04:58:46;;;;;;;1.60;1.50;;;8.70;99.90;;;;;;5032931;28;20197;-91
2021/01/12 05:01:13;;;;;;;2.03;1.83;;;8.70;99.90;;;;;;5033424;28;20231;-92
2021/01/12 05:03:43;;;;;;;2.07;1.87;;;8.60;99.90;;;;;;5016944;28;20200;-92
2021/01/12 05:06:12;;;;;;;3.53;2.07;;;8.60;99.90;;;;;;5016614;28;20540;-92
2021/01/12 05:08:55;;;;;;;5.67;1.90;;;8.70;99.90;;;;;;5016537;28;20615;-92
2021/01/12 05:11:42;;;;;;;2.67;2.47;;;8.70;99.90;;;;;;5033496;28;20169;-92
2021/01/12 05:14:13;;;;;;;6.53;2.60;;;8.80;99.90;;;;;;5016364;28;20175;-92
2021/01/12 05:16:52;;;;;;;5.40;3.00;;;8.80;99.90;;;;;;5017426;28;20261;-92
2021/01/12 05:19:20;;;;;;;3.17;2.50;;;8.80;99.90;;;;;;5015522;28;20177;-92
2021/01/12 05:21:48;;;;;;;6.77;2.80;;;8.90;99.90;;;;;;5017317;28;20663;-92
2021/01/12 05:24:21;;;;;;;4.00;2.67;;;8.90;99.90;;;;;;5016658;28;20622;-93
2021/01/12 05:26:47;;;;;;;3.50;2.90;;;8.90;99.90;;;;;;5016099;28;20172;-92
2021/01/12 05:29:17;;;;;;;4.35;2.35;;;8.90;99.90;;;;;;5023502;28;20176;-92
2021/01/12 05:31:46;;;;;;;3.23;2.13;;;9.00;99.90;;;;;;5035488;28;20194;-92
2021/01/12 05:34:16;;;;;;;7.00;2.40;;;9.00;99.90;;;;;;5035768;28;20192;-93
2021/01/12 05:37:09;;;;;;;8.43;2.78;;;9.00;99.90;;;;;;5036687;28;20180;-92
2021/01/12 05:39:40;;;;;;;4.07;2.33;;;9.10;99.90;;;;;;5035515;28;20179;-92
2021/01/12 05:42:11;;;;;;;4.13;2.10;;;9.10;99.90;;;;;;5002898;28;20212;-92
2021/01/12 05:44:41;;;;;;;2.55;1.98;;;9.10;99.90;;;;;;5035723;28;20219;-92
2021/01/12 05:47:14;;;;;;;2.47;2.08;;;9.10;99.90;;;;;;5034883;28;20543;-92
2021/01/12 05:49:43;;;;;;;6.22;2.40;;;9.00;99.90;;;;;;5019842;28;20176;-91
2021/01/12 05:52:11;;;;;;;2.67;2.40;;;9.00;99.90;;;;;;5034822;28;20172;-92
2021/01/12 05:54:37;;;;;;;3.15;2.70;;;9.10;99.90;;;;;;5035237;28;20195;-91
2021/01/12 05:57:02;;;;;;;3.63;2.77;;;9.00;99.90;;;;;;5035327;28;20183;-92
2021/01/12 05:59:30;;;;;;;5.23;3.00;;;9.00;99.90;;;;;;5042818;28;20176;-92
2021/01/12 06:02:02;;;;;;;7.78;2.70;;;9.00;99.90;;;;;;5015059;28;20200;-92
2021/01/12 06:04:28;;;;;;;6.47;2.60;;;9.00;99.90;;;;;;5031895;28;20263;-91
2021/01/12 06:06:58;;;;;;;5.93;2.50;;;9.10;99.90;;;;;;5044549;28;20238;-92
2021/01/12 06:09:26;;;;;;;6.27;2.63;;;9.10;99.90;;;;;;5039980;28;20334;-92
2021/01/12 06:11:56;;;;;;;4.33;2.07;;;9.10;99.90;;;;;;5035682;28;20184;-92
2021/01/12 06:14:26;;;;;;;3.80;2.40;;;9.10;99.90;;;;;;5050469;28;20183;-91
2021/01/12 06:16:53;;;;;;;2.85;1.65;;;9.10;99.90;;;;;;5024472;28;20169;-92
2021/01/12 06:19:20;;;;;;;3.25;1.58;;;9.10;99.90;;;;;;5031841;28;20177;-92
2021/01/12 06:21:55;;;;;;;1.80;1.20;;;9.20;99.90;;;;;;5015264;28;20211;-92
2021/01/12 06:24:38;;;;;;;3.63;1.40;;;9.20;99.90;;;;;;5015585;28;20208;-92
2021/01/12 06:27:06;;;;;;;2.33;0.90;;;9.20;99.90;;;;;;5036882;28;20161;-92
2021/01/12 06:29:33;;;;;;;2.97;0.87;;;9.20;99.90;;;;;;5055015;28;20176;-92
2021/01/12 06:31:59;;;;;;;4.17;1.60;;;9.30;99.90;;;;;;5051824;28;20200;-92
2021/01/12 06:34:25;;;;;;;2.85;1.30;;;9.20;99.90;;;;;;5052826;28;20667;-91
2021/01/12 06:36:53;;;;;;;2.07;0.90;;;9.30;99.90;;;;;;5018023;28;20573;-93
2021/01/12 06:39:39;;;;;;;4.43;1.27;;;9.30;99.90;;;;;;5019867;28;20176;-92
2021/01/12 06:42:06;;;;;;;2.25;1.42;;;9.30;99.90;;;;;;5019618;28;20197;-91
2021/01/12 06:44:34;;;;;;;8.45;1.42;;;9.30;99.90;;;;;;5014633;28;20208;-92
2021/01/12 06:47:01;;;;;;;5.70;1.58;;;9.30;99.90;;;;;;5030845;28;20180;-92
2021/01/12 06:49:28;;;;;;;10.20;1.75;;;9.30;99.90;;;;;;5015670;28;20169;-92
2021/01/12 06:52:04;;;;;;;5.55;1.40;;;9.30;99.90;;;;;;5029569;28;20184;-92
2021/01/12 06:54:48;;;;;;;5.28;1.60;;;9.30;99.90;;;;;;5020282;28;20175;-93
2021/01/12 06:57:15;;;;;;;4.72;1.50;;;9.30;99.90;;;;;;5035011;28;20195;-93
2021/01/12 06:59:46;;;;;;;2.63;1.27;;;9.30;99.90;;;;;;5034343;28;20172;-92
2021/01/12 07:02:27;;;;;;;5.03;1.92;;;9.30;99.90;;;;;;5035158;28;20195;-92
2021/01/12 07:05:04;;;;;;;3.33;1.47;;;9.30;99.90;;;;;;5034297;28;20172;-92
2021/01/12 07:07:31;;;;;;;4.32;1.55;;;9.40;99.90;;;;;;5051122;28;20172;-92
2021/01/12 07:10:00;;;;;;;6.90;1.88;;;9.40;99.90;;;;;;5034454;28;20172;-92
2021/01/12 07:12:28;;;;;;;3.75;1.35;;;9.40;99.90;;;;;;5033757;28;20172;-92
2021/01/12 07:14:56;;;;;;;7.75;1.90;;;9.50;99.90;;;;;;5055488;28;20247;-92
2021/01/12 07:17:27;;;;;;;2.47;1.80;;;9.40;99.90;;;;;;5051663;28;20180;-92
2021/01/12 07:20:19;;;;;;;3.75;1.55;;;9.40;99.90;;;;;;5034563;28;20176;-91
2021/01/12 07:23:04;;;;;;;7.50;1.60;;;9.40;99.90;;;;;;5034158;28;20198;-92
2021/01/12 07:25:35;;;;;;;3.53;1.90;;;9.30;99.90;;;;;;5029971;28;20271;-92
2021/01/12 07:28:16;;;;;;;6.80;1.87;;;9.30;99.90;;;;;;5035273;28;20534;-92
2021/01/12 07:30:44;;;;;;;5.07;1.90;;;9.30;99.90;;;;;;5030982;28;20226;-92
2021/01/12 07:33:15;;;;;;;2.45;2.00;;;9.30;99.90;;;;;;5015218;28;20168;-92
2021/01/12 07:35:41;;;;;;;3.17;1.90;;;9.30;99.90;;;;;;5016322;28;20180;-89
2021/01/12 07:38:07;;;;;;;3.60;2.20;;;9.30;99.90;;;;;;5013508;28;20179;-91
2021/01/12 07:40:34;;;;;;;6.20;2.47;;;9.40;99.90;;;;;;5011109;28;20186;-92
2021/01/12 07:43:01;;;;;;;4.72;2.40;;;9.40;99.90;;;;;;5019571;28;20199;-93
2021/01/12 07:45:29;;;;;;;5.65;2.80;;;9.40;99.90;;;;;;5038898;28;20170;-93
2021/01/12 07:47:58;;;;;;;3.87;2.70;;;9.50;99.90;;;;;;5038110;28;20172;-93
2021/01/12 07:50:26;;;;;;;4.30;3.08;;;9.50;99.90;;;;;;5037340;28;20203;-92
2021/01/12 07:52:52;;;;;;;6.20;4.60;;;9.60;99.90;;;;;;5021520;28;20200;-92
2021/01/12 07:55:17;;;;;;;7.68;3.92;;;9.50;99.90;;;;;;5054208;28;20214;-92
2021/01/12 07:57:46;;;;;;;7.70;4.38;;;9.50;99.90;;;;;;5055079;28;20171;-91
2021/01/12 08:00:13;;;;;;;6.10;4.50;;;9.50;99.90;;;;;;5038598;28;20168;-92
2021/01/12 08:02:42;;;;;;;8.90;4.70;;;9.60;99.90;;;;;;5021665;28;20297;-92
2021/01/12 08:05:10;;;;;;;7.65;4.15;;;9.60;99.90;;;;;;5039360;28;20175;-92
2021/01/12 08:07:35;;;;;;;10.13;5.07;;;9.60;99.90;;;;;;5038318;28;20527;-92
2021/01/12 08:10:06;;;;;;;13.02;5.32;;;9.60;99.90;;;;;;5022677;28;20175;-92
2021/01/12 08:12:32;;;;;;;14.63;5.28;;;9.70;99.90;;;;;;5039523;28;20175;-91
2021/01/12 08:15:08;;;;;;;11.57;4.70;;;9.70;99.90;;;;;;5038840;28;20606;-91
2021/01/12 08:17:35;;;;;;;5.65;3.72;;;9.80;99.90;;;;;;5039796;28;20172;-91
2021/01/12 08:20:05;;;;;;;9.43;5.13;;;9.80;99.90;;;;;;5052561;28;20169;-92
2021/01/12 08:22:33;;;;;;;8.48;4.78;;;9.70;99.90;;;;;;5034912;28;20199;-91
2021/01/12 08:25:06;;;;;;;13.80;4.22;;;9.70;99.90;;;;;;5018688;28;20199;-92
2021/01/12 08:27:32;;;;;;;7.63;3.88;;;9.80;99.90;;;;;;5004894;28;20200;-91
2021/01/12 08:30:09;;;;;;;12.98;4.60;;;9.80;99.90;;;;;;5037467;28;20610;-91
2021/01/12 08:32:38;;;;;;;12.68;5.60;;;9.90;99.90;;;;;;5037017;28;20176;-90
2021/01/12 08:35:07;;;;;;;10.57;5.75;;;9.90;99.90;;;;;;5037888;28;20188;-91
2021/01/12 08:37:40;;;;;;;15.77;6.47;;;9.90;99.90;;;;;;5028514;28;20168;-91
2021/01/12 08:40:08;;;;;;;13.45;5.95;;;9.80;99.90;;;;;;5060559;28;20156;-91
2021/01/12 08:42:38;;;;;;;11.60;5.18;;;9.90;99.90;;;;;;5059265;28;20204;-90
2021/01/12 08:45:12;;;;;;;11.13;5.07;;;9.90;99.90;;;;;;5048406;28;20176;-90
2021/01/12 08:47:38;;;;;;;6.55;5.30;;;10.00;99.90;;;;;;5037013;28;20174;-90
2021/01/12 08:50:06;;;;;;;11.68;5.35;;;9.90;99.90;;;;;;5004127;28;20172;-91
2021/01/12 08:52:32;;;;;;;10.95;4.18;;;9.90;99.90;;;;;;5037778;28;20614;-91
2021/01/12 08:54:58;;;;;;;9.30;3.33;;;9.90;99.90;;;;;;5038444;28;20175;-92
2021/01/12 08:57:24;;;;;;;11.00;3.83;;;9.80;99.90;;;;;;5059222;28;20180;-91
2021/01/12 08:59:50;;;;;;;4.75;3.35;;;9.90;99.90;;;;;;5041170;28;20244;-90
2021/01/12 09:02:20;;;;;;;11.35;4.30;;;9.80;99.90;;;;;;5041372;28;20258;-90
2021/01/12 09:04:47;;;;;;;6.60;3.30;;;9.90;99.90;;;;;;5038143;28;20215;-91
2021/01/12 09:07:18;;;;;;;6.97;4.25;;;10.00;99.90;;;;;;5036463;28;20179;-91
2021/01/12 09:09:54;;;;;;;5.45;3.35;;;10.00;99.90;;;;;;5037521;28;20164;-91
2021/01/12 09:12:20;;;;;;;6.93;3.95;;;10.10;99.90;;;;;;5041949;28;20176;-91
2021/01/12 09:14:47;;;;;;;7.22;4.10;;;10.10;99.90;;;;;;5038562;28;20302;-91
2021/01/12 09:17:19;;;;;;;5.50;3.38;;;10.10;99.90;;;;;;5036268;28;20222;-92
2021/01/12 09:19:53;;;;;;;7.80;3.47;;;10.20;99.90;;;;;;5016953;28;20176;-91
2021/01/12 09:22:19;;;;;;;6.57;3.38;;;10.10;99.90;;;;;;5033744;28;20247;-91
2021/01/12 09:24:54;;;;;;;3.95;3.25;;;10.00;99.90;;;;;;5017131;28;20212;-91
2021/01/12 09:27:26;;;;;;;7.70;4.27;;;10.10;99.90;;;;;;5016357;28;20440;-92
2021/01/12 09:29:52;;;;;;;4.75;3.15;;;10.20;99.90;;;;;;5017196;28;20338;-91
2021/01/12 09:32:46;;;;;;;6.55;3.17;;;10.20;99.90;;;;;;5032659;28;20176;-91
2021/01/12 09:35:19;;;;;;;10.77;3.90;;;10.20;99.90;;;;;;5030997;28;20247;-92
2021/01/12 09:38:01;;;;;;;6.05;3.67;;;10.20;99.90;;;;;;5033416;28;20613;-92
2021/01/12 09:40:28;;;;;;;4.43;2.72;;;10.30;99.90;;;;;;5033040;28;20251;-92
2021/01/12 09:42:54;;;;;;;4.15;2.67;;;10.30;99.90;;;;;;5034630;28;20193;-91
2021/01/12 09:45:19;;;;;;;5.78;3.50;;;10.20;99.90;;;;;;5034863;28;20184;-91
2021/01/12 09:47:46;;;;;;;3.70;2.92;;;10.30;99.90;;;;;;5034151;28;20181;-91
2021/01/12 09:50:12;;;;;;;5.70;1.90;;;10.30;99.90;;;;;;5017435;28;20173;-91
2021/01/12 09:52:38;;;;;;;3.20;1.30;;;10.20;99.90;;;;;;5029690;28;20152;-91
2021/01/12 09:55:04;;;;;;;4.80;1.00;;;10.00;99.90;;;;;;5066997;28;20180;-91
2021/01/12 09:57:30;;;;;;;3.15;0.80;;;9.80;99.90;;;;;;5059041;28;20159;-91
2021/01/12 09:59:56;;;;;;;5.65;0.90;;;9.70;99.90;;;;;;5058746;28;20168;-91
2021/01/12 10:02:21;;;;;;;4.65;1.13;;;9.70;99.90;;;;;;5040071;28;20219;-90
2021/01/12 10:04:47;;;;;;;3.75;1.05;;;9.60;99.90;;;;;;5029676;28;20177;-91
2021/01/12 10:07:16;;;;;;;8.05;1.58;;;9.60;99.90;;;;;;5036361;28;20168;-91
2021/01/12 10:09:41;;;;;;;0.88;0.80;;;9.70;99.90;;;;;;5019699;28;20169;-91
2021/01/12 10:12:07;;;;;;;2.72;1.00;;;9.70;99.90;;;;;;5019100;28;20307;-91
2021/01/12 10:14:33;;;;;;;2.95;1.23;;;9.70;99.90;;;;;;5034763;28;20255;-91
2021/01/12 10:16:58;;;;;;;5.65;1.80;;;9.70;99.90;;;;;;5025141;28;20180;-91
2021/01/12 10:19:24;;;;;;;3.75;1.45;;;9.70;99.90;;;;;;5037377;28;20164;-91
2021/01/12 10:21:50;;;;;;;1.70;1.40;;;9.60;99.90;;;;;;5021104;28;20203;-92
2021/01/12 10:24:16;;;;;;;5.28;1.67;;;9.60;99.90;;;;;;5053170;28;20180;-91
2021/01/12 10:26:43;;;;;;;3.28;1.58;;;9.60;99.90;;;;;;5053179;28;20667;-92
2021/01/12 10:29:09;;;;;;;3.72;1.88;;;9.60;99.90;;;;;;5053322;28;20171;-91
2021/01/12 10:31:35;;;;;;;2.50;1.50;;;9.80;99.90;;;;;;5038017;28;20674;-91
2021/01/12 10:34:01;;;;;;;2.15;1.45;;;9.90;99.90;;;;;;5036555;28;20176;-91
2021/01/12 10:36:26;;;;;;;3.60;1.88;;;10.00;99.90;;;;;;5052647;28;20165;-91
2021/01/12 10:38:52;;;;;;;9.00;1.73;;;10.00;99.90;;;;;;5035807;28;20175;-90
2021/01/12 10:41:18;;;;;;;6.70;2.05;;;10.00;99.90;;;;;;5051631;28;20173;-92
2021/01/12 10:43:43;;;;;;;5.63;2.40;;;10.10;99.90;;;;;;5033459;28;20216;-91
2021/01/12 10:46:10;;;;;;;10.50;3.47;;;10.20;99.90;;;;;;5034617;28;20173;-92
2021/01/12 10:48:36;;;;;;;10.73;3.35;;;10.30;99.90;;;;;;5018161;28;20678;-91
2021/01/12 10:51:04;;;;;;;8.55;3.17;;;10.20;99.90;;;;;;5017411;28;20208;-91
2021/01/12 10:53:30;;;;;;;5.47;2.55;;;10.10;99.90;;;;;;5015157;28;20169;-91
2021/01/12 10:55:57;;;;;;;4.97;3.47;;;10.10;99.90;;;;;;5014823;28;20179;-90
2021/01/12 10:58:22;;;;;;;12.65;4.28;;;10.10;99.90;;;;;;5015331;28;20205;-91
2021/01/12 11:00:53;;;;;;;6.00;4.00;;;10.00;99.90;;;;;;5032107;28;20168;-91
2021/01/12 11:03:19;;;;;;;4.70;3.58;;;9.80;99.90;;;;;;5052918;28;20652;-91
2021/01/12 11:05:49;;;;;;;10.20;3.80;;;9.70;99.90;;;;;;5047365;28;20183;-92
2021/01/12 11:08:17;;;;;;;10.27;3.03;;;9.70;99.90;;;;;;5055471;28;20236;-91
2021/01/12 11:10:44;;;;;;;8.07;3.10;;;9.70;99.90;;;;;;5054127;28;20172;-92
2021/01/12 11:13:10;;;;;;;5.57;2.20;;;9.80;99.90;;;;;;5057996;28;20168;-91
2021/01/12 11:15:39;;;;;;;6.97;1.77;;;9.80;99.90;;;;;;5053540;28;20178;-91
2021/01/12 11:18:05;;;;;;;6.95;1.90;;;9.90;99.90;;;;;;5017071;28;20254;-91
2021/01/12 11:20:32;;;;;;;6.80;1.55;;;9.90;99.90;;;;;;5016425;28;20256;-91
2021/01/12 11:22:57;;;;;;;6.70;1.38;;;10.00;99.90;;;;;;5026666;28;20228;-92
2021/01/12 11:25:23;;;;;;;11.52;1.27;;;10.10;99.90;;;;;;5069736;28;20168;-92
2021/01/12 11:27:49;;;;;;;4.20;1.20;;;10.00;99.90;;;;;;5053173;28;20165;-91
2021/01/12 11:30:19;;;;;;;3.85;1.35;;;10.00;99.90;;;;;;5036838;28;20168;-92
2021/01/12 11:32:46;;;;;;;8.68;1.17;;;9.90;99.90;;;;;;5018821;28;20180;-91
2021/01/12 11:35:15;;;;;;;3.13;1.25;;;9.70;99.90;;;;;;5051771;28;20180;-91
2021/01/12 11:37:43;;;;;;;4.95;1.15;;;9.70;99.90;;;;;;5035329;28;20195;-92
2021/01/12 11:40:10;;;;;;;4.38;1.30;;;9.70;99.90;;;;;;5035950;28;20185;-92
2021/01/12 11:42:38;;;;;;;6.60;1.50;;;9.80;99.90;;;;;;5052669;28;20192;-91
2021/01/12 11:45:07;;;;;;;4.80;1.27;;;9.90;99.90;;;;;;5048267;28;20184;-92
2021/01/12 11:47:35;;;;;;;14.00;2.10;;;10.00;99.90;;;;;;5032370;28;20192;-92
2021/01/12 11:50:08;;;;;;;2.97;1.10;;;10.10;99.90;;;;;;5033096;28;20173;-92
2021/01/12 11:52:35;;;;;;;3.53;1.50;;;10.30;99.90;;;;;;5035108;28;20179;-91
2021/01/12 11:55:01;;;;;;;5.80;1.88;;;10.30;99.90;;;;;;5043885;28;20266;-92
2021/01/12 11:57:27;;;;;;;6.95;1.60;;;10.50;99.90;;;;;;5035700;28;20199;-91
2021/01/12 11:59:53;;;;;;;7.13;1.90;;;10.60;99.90;;;;;;5035636;28;20182;-92
2021/01/12 12:02:18;;;;;;;7.28;2.53;;;10.70;99.90;;;;;;5035889;28;20206;-91
2021/01/12 12:04:46;;;;;;;4.32;3.05;;;10.70;99.90;;;;;;5035499;28;20180;-92
2021/01/12 12:07:15;;;;;;;6.88;2.35;;;10.60;99.90;;;;;;5034437;28;20571;-92
2021/01/12 12:09:40;;;;;;;10.68;2.88;;;10.60;99.90;;;;;;5051836;28;20171;-91
2021/01/12 12:12:09;;;;;;;5.13;2.90;;;10.80;99.90;;;;;;5051345;28;20169;-92
2021/01/12 12:14:35;;;;;;;7.85;2.22;;;10.90;99.90;;;;;;5051388;28;20175;-92
2021/01/12 12:17:05;;;;;;;6.70;2.33;;;11.00;99.90;;;;;;5050999;28;20210;-92
2021/01/12 12:19:31;;;;;;;2.85;1.73;;;10.90;99.90;;;;;;5028093;28;20177;-92
2021/01/12 12:21:58;;;;;;;7.10;2.05;;;10.80;99.90;;;;;;5015241;28;20208;-92
2021/01/12 12:24:30;;;;;;;6.95;1.92;;;10.70;99.90;;;;;;5031835;28;20180;-91
2021/01/12 12:27:00;;;;;;;3.33;1.60;;;10.60;99.90;;;;;;5042531;28;20164;-91
2021/01/12 12:29:29;;;;;;;3.08;0.90;;;10.50;99.90;;;;;;5048785;28;20177;-92
2021/01/12 12:31:56;;;;;;;5.03;1.00;;;10.40;99.90;;;;;;5017718;28;20342;-92
2021/01/12 12:34:27;;;;;;;4.80;0.95;;;10.40;99.90;;;;;;5032889;28;20270;-92
2021/01/12 12:36:55;;;;;;;2.28;1.10;;;10.30;99.90;;;;;;5039186;28;20173;-91
2021/01/12 12:39:21;;;;;;;6.90;1.00;;;10.30;99.90;;;;;;5017746;28;20175;-91
2021/01/12 12:41:50;;;;;;;6.90;1.13;;;9.90;99.90;;;;;;5018516;28;20681;-90
2021/01/12 12:44:18;;;;;;;2.75;0.80;;;9.60;99.90;;;;;;5017847;28;20528;-91
2021/01/12 12:46:45;;;;;;;3.65;0.52;;;9.30;99.90;;;;;;5017098;28;20268;-91
2021/01/12 12:49:11;;;;;;;2.93;0.63;;;9.00;99.90;;;;;;5017147;28;20169;-90
2021/01/12 12:51:37;;;;;;;3.80;0.70;;;8.70;99.90;;;;;;5016820;28;20211;-90
2021/01/12 12:54:06;;;;;;;3.70;1.03;;;8.70;99.90;;;;;;5001140;28;20211;-90
2021/01/12 12:56:31;;;;;;;6.03;1.20;;;8.90;99.90;;;;;;5001382;28;20610;-89
2021/01/12 12:58:57;;;;;;;4.63;0.80;;;9.00;99.90;;;;;;5017154;28;20169;-90